Time;durP1;ratioP1;P1;durP2;ratioP2;P2;SDS_P1;SDS_P2;PMS_P1;PMS_P2;Temp;Humidity;BMP_temperature;BMP_pressure;BME280_temperature;BME280_humidity;BME280_pressure;Samples;Min_cycle;Max_cycle;Signal;HPM_P1;HPM_P2
2023/08/22 00:00:15;;;;;;;2.72;0.73;;;22.80;69.50;;;;;;5011354;28;20057;-72
2023/08/22 00:02:41;;;;;;;0.85;0.70;;;22.70;69.60;;;;;;5012840;28;20026;-72
2023/08/22 00:05:07;;;;;;;0.60;0.40;;;22.70;69.70;;;;;;5006591;28;20040;-72
2023/08/22 00:07:33;;;;;;;2.08;0.70;;;22.70;69.80;;;;;;4994258;28;20045;-72
2023/08/22 00:09:59;;;;;;;0.30;0.30;;;22.70;69.90;;;;;;5007078;28;20472;-72
2023/08/22 00:12:25;;;;;;;1.23;0.60;;;22.70;70.00;;;;;;5013467;28;20473;-73
2023/08/22 00:14:50;;;;;;;0.60;0.50;;;22.60;70.00;;;;;;5013895;28;20030;-73
2023/08/22 00:17:17;;;;;;;0.40;0.40;;;22.60;70.10;;;;;;5006550;28;20029;-72
2023/08/22 00:19:43;;;;;;;2.70;0.90;;;22.50;70.10;;;;;;5010642;28;20029;-72
2023/08/22 00:22:11;;;;;;;0.88;0.63;;;22.60;70.30;;;;;;5008086;28;20473;-72
2023/08/22 00:24:38;;;;;;;0.80;0.73;;;22.50;70.30;;;;;;5013378;28;20065;-72
2023/08/22 00:27:04;;;;;;;0.40;0.40;;;22.50;70.50;;;;;;5013228;28;20104;-72
2023/08/22 00:29:29;;;;;;;0.68;0.65;;;22.50;70.50;;;;;;5014705;28;20557;-72
2023/08/22 00:31:57;;;;;;;0.45;0.45;;;22.50;70.60;;;;;;5015316;28;20030;-72
2023/08/22 00:34:22;;;;;;;0.70;0.70;;;22.50;70.60;;;;;;5015071;28;20065;-72
2023/08/22 00:36:48;;;;;;;0.63;0.60;;;22.50;70.60;;;;;;5010473;28;20458;-72
2023/08/22 00:39:14;;;;;;;0.50;0.40;;;22.50;70.60;;;;;;5031862;28;20038;-73
2023/08/22 00:41:40;;;;;;;0.63;0.52;;;22.50;70.70;;;;;;5011596;28;20089;-72
2023/08/22 00:44:05;;;;;;;0.47;0.40;;;22.50;70.70;;;;;;5013779;28;20113;-72
2023/08/22 00:46:31;;;;;;;1.30;0.70;;;22.40;70.60;;;;;;5014218;28;20453;-72
2023/08/22 00:48:58;;;;;;;0.22;0.22;;;22.40;70.80;;;;;;5014757;28;20045;-72
2023/08/22 00:51:24;;;;;;;0.50;0.50;;;22.40;70.80;;;;;;5010354;28;20038;-72
2023/08/22 00:53:50;;;;;;;0.50;0.43;;;22.40;70.90;;;;;;4994358;28;20572;-72
2023/08/22 00:56:16;;;;;;;0.90;0.45;;;22.40;71.00;;;;;;5009460;28;20113;-75
2023/08/22 00:58:41;;;;;;;0.63;0.40;;;22.30;70.80;;;;;;5016164;28;20030;-75
2023/08/22 01:01:08;;;;;;;0.80;0.47;;;22.30;70.90;;;;;;5017028;28;20032;-75
2023/08/22 01:03:37;;;;;;;0.45;0.45;;;22.30;71.00;;;;;;5014670;28;20393;-73
2023/08/22 01:06:14;;;;;;;1.45;0.70;;;22.30;71.00;;;;;;5013772;28;20092;-72
2023/08/22 01:08:42;;;;;;;0.65;0.60;;;22.20;71.00;;;;;;5008673;28;20026;-72
2023/08/22 01:11:22;;;;;;;0.57;0.57;;;22.20;71.10;;;;;;5011036;28;20018;-72
2023/08/22 01:13:51;;;;;;;0.60;0.60;;;22.10;71.20;;;;;;5020511;28;20106;-73
2023/08/22 01:16:18;;;;;;;1.00;0.68;;;22.00;71.30;;;;;;5014517;28;20155;-72
2023/08/22 01:18:45;;;;;;;0.43;0.43;;;22.00;71.40;;;;;;5009449;28;20037;-72
2023/08/22 01:21:18;;;;;;;0.30;0.30;;;22.00;71.40;;;;;;5033514;28;20038;-72
2023/08/22 01:23:44;;;;;;;2.88;1.30;;;22.00;71.50;;;;;;5017680;28;20413;-72
2023/08/22 01:26:10;;;;;;;1.17;0.70;;;21.90;71.60;;;;;;5011142;28;20029;-72
2023/08/22 01:28:47;;;;;;;1.60;0.45;;;21.90;71.60;;;;;;5015985;28;20025;-72
2023/08/22 01:31:43;;;;;;;0.47;0.47;;;21.90;71.80;;;;;;5009289;28;20029;-72
2023/08/22 01:34:19;;;;;;;0.60;0.50;;;21.90;71.70;;;;;;5013990;28;20049;-72
2023/08/22 01:36:46;;;;;;;0.50;0.50;;;21.80;71.90;;;;;;5012678;28;20034;-72
2023/08/22 01:39:17;;;;;;;0.63;0.60;;;21.70;72.20;;;;;;5008943;28;20113;-72
2023/08/22 01:41:43;;;;;;;0.35;0.35;;;21.80;72.10;;;;;;5008739;28;20029;-72
2023/08/22 01:44:08;;;;;;;0.63;0.40;;;21.70;72.20;;;;;;5017122;28;20473;-72
2023/08/22 01:46:34;;;;;;;0.50;0.45;;;21.70;72.30;;;;;;5011188;28;20129;-72
2023/08/22 01:49:00;;;;;;;1.55;0.57;;;21.70;72.40;;;;;;5010796;28;20537;-72
2023/08/22 01:51:25;;;;;;;0.52;0.50;;;21.60;72.30;;;;;;5011977;28;20037;-72
2023/08/22 01:53:51;;;;;;;0.50;0.45;;;21.70;72.40;;;;;;5008484;28;20033;-72
2023/08/22 01:56:17;;;;;;;0.85;0.45;;;21.60;72.30;;;;;;5006396;28;20073;-72
2023/08/22 01:58:42;;;;;;;0.57;0.57;;;21.60;72.30;;;;;;5014988;28;20025;-74
2023/08/22 02:01:12;;;;;;;0.65;0.55;;;21.60;72.40;;;;;;5014158;28;20090;-75
2023/08/22 02:03:41;;;;;;;0.38;0.38;;;21.60;72.40;;;;;;5011432;28;20393;-75
2023/08/22 02:06:07;;;;;;;0.85;0.50;;;21.60;72.50;;;;;;5013322;28;20032;-75
2023/08/22 02:08:33;;;;;;;0.50;0.50;;;21.50;72.60;;;;;;5017452;28;20034;-75
2023/08/22 02:10:59;;;;;;;0.50;0.50;;;21.50;72.60;;;;;;5008315;28;20542;-75
2023/08/22 02:13:25;;;;;;;0.47;0.47;;;21.50;72.70;;;;;;5008257;28;20080;-75
2023/08/22 02:15:50;;;;;;;1.25;0.52;;;21.50;72.80;;;;;;5012287;28;20485;-72
2023/08/22 02:18:16;;;;;;;0.45;0.45;;;21.50;72.80;;;;;;5010077;28;20072;-72
2023/08/22 02:20:42;;;;;;;0.35;0.35;;;21.50;72.80;;;;;;5017904;28;20056;-75
2023/08/22 02:23:08;;;;;;;0.88;0.63;;;21.50;72.80;;;;;;5009816;28;20022;-75
2023/08/22 02:25:35;;;;;;;0.60;0.50;;;21.40;72.90;;;;;;5023088;28;20026;-75
2023/08/22 02:28:02;;;;;;;1.25;0.40;;;21.40;72.90;;;;;;5014583;28;20080;-74
2023/08/22 02:30:28;;;;;;;0.40;0.40;;;21.40;73.10;;;;;;5010368;28;20033;-75
2023/08/22 02:32:53;;;;;;;0.73;0.73;;;21.40;73.20;;;;;;5012496;28;20041;-75
2023/08/22 02:35:22;;;;;;;0.88;0.38;;;21.30;73.10;;;;;;5009821;28;20081;-75
2023/08/22 02:37:49;;;;;;;0.50;0.50;;;21.30;73.10;;;;;;5009327;28;20085;-75
2023/08/22 02:40:15;;;;;;;0.50;0.40;;;21.30;73.10;;;;;;4994166;28;20101;-75
2023/08/22 02:42:40;;;;;;;0.45;0.45;;;21.30;73.10;;;;;;5010939;28;20021;-75
2023/08/22 02:45:06;;;;;;;1.20;0.75;;;21.30;73.20;;;;;;5009453;28;20026;-75
2023/08/22 02:47:32;;;;;;;0.60;0.50;;;21.30;73.80;;;;;;5009546;28;20575;-75
2023/08/22 02:49:58;;;;;;;0.50;0.50;;;21.20;73.20;;;;;;5009534;28;20046;-75
2023/08/22 02:52:24;;;;;;;1.05;0.90;;;21.20;73.40;;;;;;5007848;28;20500;-75
2023/08/22 02:54:51;;;;;;;0.73;0.47;;;21.20;73.40;;;;;;5011689;28;20056;-75
2023/08/22 02:57:16;;;;;;;0.60;0.60;;;21.20;73.40;;;;;;5003165;28;20512;-75
2023/08/22 02:59:42;;;;;;;0.55;0.55;;;21.20;73.40;;;;;;5016694;28;20021;-75
2023/08/22 03:02:08;;;;;;;0.50;0.50;;;21.20;73.50;;;;;;5012334;28;20030;-75
2023/08/22 03:04:36;;;;;;;0.65;0.63;;;21.10;73.40;;;;;;5010504;28;20069;-75
2023/08/22 03:07:03;;;;;;;0.40;0.40;;;21.20;73.40;;;;;;5013849;28;20038;-75
2023/08/22 03:09:29;;;;;;;0.60;0.50;;;21.10;74.00;;;;;;5017312;28;20399;-75
2023/08/22 03:11:55;;;;;;;0.98;0.60;;;21.10;73.50;;;;;;5016060;28;20181;-75
2023/08/22 03:14:21;;;;;;;1.13;0.73;;;21.10;73.50;;;;;;5012454;28;20041;-75
2023/08/22 03:16:46;;;;;;;3.30;0.82;;;21.00;73.50;;;;;;5011808;28;20026;-75
2023/08/22 03:19:12;;;;;;;0.52;0.50;;;21.00;73.50;;;;;;5017362;28;20045;-75
2023/08/22 03:21:38;;;;;;;0.68;0.68;;;20.90;73.60;;;;;;5013660;28;20041;-75
2023/08/22 03:24:04;;;;;;;1.05;0.70;;;20.90;73.70;;;;;;5014393;28;20033;-75
2023/08/22 03:26:30;;;;;;;0.40;0.40;;;20.90;73.70;;;;;;5005602;28;20490;-75
2023/08/22 03:28:55;;;;;;;0.75;0.50;;;20.80;74.30;;;;;;5018196;28;20030;-75
2023/08/22 03:31:26;;;;;;;0.90;0.60;;;20.80;73.70;;;;;;5005356;28;20041;-75
2023/08/22 03:33:52;;;;;;;0.93;0.60;;;20.80;73.80;;;;;;5009048;28;20033;-75
2023/08/22 03:36:19;;;;;;;1.15;0.60;;;20.70;73.80;;;;;;5021185;28;20037;-75
2023/08/22 03:38:46;;;;;;;1.00;0.90;;;20.70;73.90;;;;;;5014858;28;20116;-75
2023/08/22 03:41:12;;;;;;;0.52;0.40;;;20.70;73.90;;;;;;5010335;28;20051;-75
2023/08/22 03:43:38;;;;;;;0.50;0.50;;;20.70;73.90;;;;;;5017283;28;20026;-75
2023/08/22 03:46:04;;;;;;;0.63;0.50;;;20.70;73.90;;;;;;5009454;28;20378;-75
2023/08/22 03:48:30;;;;;;;0.63;0.63;;;20.60;73.90;;;;;;5013025;28;20040;-75
2023/08/22 03:50:56;;;;;;;0.73;0.70;;;20.60;74.10;;;;;;5010545;28;20096;-75
2023/08/22 03:53:22;;;;;;;0.50;0.50;;;20.60;74.10;;;;;;5013497;28;20496;-72
2023/08/22 03:55:48;;;;;;;0.98;0.60;;;20.60;74.10;;;;;;5009881;28;20049;-72
2023/08/22 03:58:14;;;;;;;1.85;0.88;;;20.60;74.10;;;;;;5010191;28;20065;-72
2023/08/22 04:00:40;;;;;;;1.92;0.60;;;20.60;74.10;;;;;;5019865;28;20451;-72
2023/08/22 04:03:05;;;;;;;1.25;0.52;;;20.50;74.10;;;;;;5011961;28;20022;-72
2023/08/22 04:05:31;;;;;;;0.90;0.60;;;20.50;74.10;;;;;;4998210;28;20038;-72
2023/08/22 04:07:57;;;;;;;0.73;0.63;;;20.50;74.20;;;;;;5020444;28;20405;-72
2023/08/22 04:10:23;;;;;;;0.63;0.60;;;20.40;74.10;;;;;;5017595;28;20083;-73
2023/08/22 04:12:48;;;;;;;1.55;0.70;;;20.40;74.10;;;;;;5001805;28;20712;-72
2023/08/22 04:15:16;;;;;;;0.90;0.70;;;20.40;74.20;;;;;;5013996;28;20041;-72
2023/08/22 04:17:41;;;;;;;0.82;0.80;;;20.40;74.20;;;;;;5008953;28;20108;-72
2023/08/22 04:20:10;;;;;;;0.80;0.52;;;20.30;74.20;;;;;;5016038;28;20548;-74
2023/08/22 04:22:36;;;;;;;1.02;0.65;;;20.30;74.40;;;;;;5011365;28;20038;-74
2023/08/22 04:25:04;;;;;;;1.95;0.60;;;20.30;74.40;;;;;;5016969;28;20083;-75
2023/08/22 04:27:30;;;;;;;1.02;0.63;;;20.30;74.30;;;;;;5016815;28;20033;-74
2023/08/22 04:29:55;;;;;;;2.58;0.80;;;20.30;74.30;;;;;;5017493;28;20092;-75
2023/08/22 04:32:21;;;;;;;0.30;0.30;;;20.30;74.40;;;;;;5018188;28;20064;-74
2023/08/22 04:34:47;;;;;;;2.58;0.95;;;20.20;74.30;;;;;;5011415;28;20034;-74
2023/08/22 04:37:13;;;;;;;0.60;0.50;;;20.20;74.30;;;;;;5030267;28;20034;-73
2023/08/22 04:39:38;;;;;;;0.77;0.70;;;20.20;74.30;;;;;;5011953;28;20030;-74
2023/08/22 04:42:04;;;;;;;1.10;0.60;;;20.20;74.30;;;;;;5013230;28;20073;-75
2023/08/22 04:44:30;;;;;;;0.55;0.45;;;20.20;74.30;;;;;;5014147;28;20041;-74
2023/08/22 04:46:56;;;;;;;0.50;0.50;;;20.20;74.30;;;;;;5014694;28;20041;-74
2023/08/22 04:49:23;;;;;;;1.27;0.68;;;20.20;74.30;;;;;;5013210;28;20038;-75
2023/08/22 04:51:49;;;;;;;2.63;0.60;;;20.20;74.30;;;;;;5007321;28;20042;-74
2023/08/22 04:54:15;;;;;;;0.50;0.50;;;20.10;74.30;;;;;;4992131;28;20049;-75
2023/08/22 04:56:40;;;;;;;0.70;0.70;;;20.20;74.40;;;;;;5005095;28;20034;-75
2023/08/22 04:59:06;;;;;;;0.80;0.80;;;20.10;74.50;;;;;;5012842;28;20042;-74
2023/08/22 05:01:32;;;;;;;0.65;0.65;;;20.20;74.50;;;;;;5011534;28;20037;-75
2023/08/22 05:03:57;;;;;;;2.47;0.80;;;20.20;74.50;;;;;;5003139;28;20125;-74
2023/08/22 05:06:23;;;;;;;0.77;0.70;;;20.20;74.60;;;;;;5015895;28;20435;-75
2023/08/22 05:08:49;;;;;;;0.90;0.70;;;20.20;74.80;;;;;;5015352;28;20129;-75
2023/08/22 05:11:14;;;;;;;0.70;0.70;;;20.20;74.90;;;;;;5006294;28;20101;-75
2023/08/22 05:13:40;;;;;;;0.93;0.55;;;20.20;75.10;;;;;;5010819;28;20026;-75
2023/08/22 05:16:06;;;;;;;0.77;0.75;;;20.20;75.20;;;;;;5012823;28;20034;-75
2023/08/22 05:18:31;;;;;;;0.60;0.60;;;20.20;75.20;;;;;;5006360;28;20038;-75
2023/08/22 05:20:57;;;;;;;0.75;0.75;;;20.20;75.30;;;;;;5010856;28;20117;-75
2023/08/22 05:23:23;;;;;;;0.73;0.63;;;20.20;75.40;;;;;;5014676;28;20560;-75
2023/08/22 05:25:48;;;;;;;0.98;0.88;;;20.30;75.40;;;;;;5008730;28;20453;-72
2023/08/22 05:28:14;;;;;;;1.48;0.90;;;20.20;75.50;;;;;;5012204;28;20042;-76
2023/08/22 05:30:40;;;;;;;0.70;0.70;;;20.30;75.60;;;;;;5019717;28;20108;-75
2023/08/22 05:33:09;;;;;;;1.33;0.95;;;20.30;75.70;;;;;;5012146;28;20022;-74
2023/08/22 05:35:35;;;;;;;1.48;1.05;;;20.30;75.70;;;;;;5013904;28;20041;-75
2023/08/22 05:38:00;;;;;;;2.17;0.70;;;20.40;75.90;;;;;;5009365;28;20026;-74
2023/08/22 05:40:26;;;;;;;1.33;0.80;;;20.50;76.00;;;;;;5008395;28;20389;-75
2023/08/22 05:42:52;;;;;;;2.35;1.23;;;20.50;76.10;;;;;;5010111;28;20033;-75
2023/08/22 05:45:18;;;;;;;1.10;0.80;;;20.50;76.10;;;;;;5011281;28;20029;-75
2023/08/22 05:47:44;;;;;;;1.20;0.88;;;20.60;76.10;;;;;;5028907;28;20401;-71
2023/08/22 05:50:10;;;;;;;1.33;0.93;;;20.70;76.10;;;;;;5012288;28;20046;-71
2023/08/22 05:52:36;;;;;;;2.70;0.88;;;20.70;76.30;;;;;;5009576;28;20535;-72
2023/08/22 05:55:03;;;;;;;2.08;0.80;;;20.80;76.40;;;;;;5010329;28;20109;-72
2023/08/22 05:57:29;;;;;;;3.30;1.00;;;20.90;76.50;;;;;;5010105;28;20034;-72
2023/08/22 05:59:55;;;;;;;0.73;0.73;;;21.00;77.20;;;;;;4994890;28;20543;-72
2023/08/22 06:02:21;;;;;;;0.60;0.60;;;21.10;76.50;;;;;;5009172;28;20366;-72
2023/08/22 06:04:47;;;;;;;0.55;0.55;;;21.20;76.50;;;;;;5013438;28;20034;-72
2023/08/22 06:07:13;;;;;;;2.60;0.95;;;21.40;76.30;;;;;;5011856;28;20026;-72
2023/08/22 06:09:39;;;;;;;1.83;1.15;;;21.60;76.30;;;;;;5011697;28;20050;-72
2023/08/22 06:12:06;;;;;;;1.98;1.55;;;21.60;76.30;;;;;;5010151;28;20098;-71
2023/08/22 06:14:31;;;;;;;1.58;1.20;;;21.80;76.30;;;;;;5010962;28;20030;-70
2023/08/22 06:17:00;;;;;;;0.70;0.68;;;21.80;75.20;;;;;;5017857;28;20056;-71
2023/08/22 06:19:26;;;;;;;2.70;1.33;;;21.90;74.90;;;;;;5016708;28;20034;-70
2023/08/22 06:21:52;;;;;;;3.95;1.38;;;21.90;74.80;;;;;;5018449;28;20125;-70
2023/08/22 06:24:18;;;;;;;2.25;1.52;;;22.00;74.50;;;;;;5009182;28;20026;-72
2023/08/22 06:26:44;;;;;;;0.95;0.88;;;22.00;74.30;;;;;;5025422;28;20075;-72
2023/08/22 06:29:10;;;;;;;1.65;1.40;;;22.10;74.30;;;;;;5018631;28;20049;-72
2023/08/22 06:31:36;;;;;;;3.10;1.33;;;22.20;74.20;;;;;;5012075;28;20066;-73
2023/08/22 06:34:01;;;;;;;4.03;2.10;;;22.30;73.80;;;;;;5014415;28;20030;-72
2023/08/22 06:36:27;;;;;;;1.45;1.13;;;22.40;73.20;;;;;;5008906;28;20034;-72
2023/08/22 06:38:53;;;;;;;1.63;1.42;;;22.50;72.40;;;;;;5010733;28;20022;-72
2023/08/22 06:41:20;;;;;;;4.35;1.80;;;22.60;71.70;;;;;;5017140;28;20018;-71
2023/08/22 06:43:46;;;;;;;2.35;1.73;;;22.70;71.00;;;;;;5012967;28;20054;-69
2023/08/22 06:46:12;;;;;;;1.10;1.00;;;22.80;70.80;;;;;;5008719;28;20738;-72
2023/08/22 06:48:38;;;;;;;1.48;1.15;;;22.90;70.40;;;;;;5024172;28;20033;-75
2023/08/22 06:51:03;;;;;;;1.25;0.85;;;22.90;70.30;;;;;;5008291;28;20123;-73
2023/08/22 06:53:29;;;;;;;1.17;0.93;;;22.90;70.00;;;;;;5008613;28;20037;-74
2023/08/22 06:55:55;;;;;;;5.22;0.90;;;22.90;69.90;;;;;;5006826;28;20385;-76
2023/08/22 06:58:21;;;;;;;1.10;1.00;;;23.00;69.90;;;;;;5013230;28;20025;-73
2023/08/22 07:00:47;;;;;;;2.55;1.60;;;23.00;69.10;;;;;;5010222;28;20542;-76
2023/08/22 07:03:13;;;;;;;1.80;1.33;;;23.10;68.50;;;;;;5015990;28;20598;-76
2023/08/22 07:05:39;;;;;;;1.33;1.10;;;23.10;68.60;;;;;;5005345;28;20092;-75
2023/08/22 07:08:05;;;;;;;2.33;1.20;;;23.10;67.80;;;;;;5000584;28;20034;-75
2023/08/22 07:10:31;;;;;;;2.67;0.95;;;23.10;68.00;;;;;;5017781;28;20049;-74
2023/08/22 07:12:57;;;;;;;4.18;1.42;;;23.10;68.10;;;;;;5002370;28;20042;-74
2023/08/22 07:15:22;;;;;;;1.70;1.45;;;23.20;68.00;;;;;;5017604;28;20038;-75
2023/08/22 07:17:48;;;;;;;1.08;0.90;;;23.20;67.60;;;;;;5003300;28;20529;-75
2023/08/22 07:20:14;;;;;;;2.00;1.42;;;23.30;66.50;;;;;;4997869;28;20042;-73
2023/08/22 07:22:40;;;;;;;3.38;1.40;;;23.30;66.40;;;;;;4998967;28;20026;-76
2023/08/22 07:25:06;;;;;;;1.42;0.88;;;23.40;66.60;;;;;;4995356;28;20034;-74
2023/08/22 07:27:31;;;;;;;4.13;1.00;;;23.40;66.70;;;;;;4997904;28;20042;-75
2023/08/22 07:29:57;;;;;;;1.25;1.15;;;23.50;67.20;;;;;;5003209;28;21164;-74
2023/08/22 07:32:23;;;;;;;0.63;0.60;;;23.60;67.10;;;;;;5004359;28;20128;-74
2023/08/22 07:38:29;;;;;;;1.42;0.80;;;23.80;63.60;;;;;;5033073;28;20175;-74
2023/08/22 07:40:55;;;;;;;4.28;1.65;;;23.80;63.90;;;;;;5032988;28;20550;-73
2023/08/22 07:43:20;;;;;;;0.70;0.70;;;23.70;63.30;;;;;;5015413;28;20105;-73
2023/08/22 07:45:46;;;;;;;3.30;1.33;;;23.80;63.50;;;;;;5031912;28;20037;-74
2023/08/22 07:48:12;;;;;;;0.73;0.40;;;23.80;63.90;;;;;;5033499;28;20034;-74
2023/08/22 07:50:38;;;;;;;0.90;0.77;;;24.00;64.00;;;;;;5031514;28;20586;-74
2023/08/22 07:53:05;;;;;;;5.07;1.58;;;24.10;63.70;;;;;;5031976;28;20065;-74
2023/08/22 07:55:31;;;;;;;1.02;0.80;;;24.10;62.70;;;;;;5033025;28;20040;-73
2023/08/22 07:57:56;;;;;;;2.47;0.73;;;24.00;62.80;;;;;;5028784;28;20026;-74
2023/08/22 08:00:22;;;;;;;1.40;0.90;;;24.10;63.00;;;;;;5007408;28;20053;-74
2023/08/22 08:02:49;;;;;;;0.65;0.65;;;24.10;62.70;;;;;;5010407;28;20163;-73
2023/08/22 08:05:15;;;;;;;0.98;0.98;;;24.20;63.00;;;;;;4995681;28;20103;-74
2023/08/22 08:07:41;;;;;;;1.38;0.70;;;24.20;62.90;;;;;;5021952;28;20034;-74
2023/08/22 08:10:07;;;;;;;0.52;0.52;;;24.30;63.10;;;;;;5002849;28;20046;-74
2023/08/22 08:12:33;;;;;;;2.00;0.70;;;24.40;62.50;;;;;;5006687;28;20038;-74
2023/08/22 08:14:59;;;;;;;1.80;0.60;;;24.40;62.70;;;;;;5009194;28;20088;-73
2023/08/22 08:17:25;;;;;;;1.15;0.80;;;24.50;62.80;;;;;;5006059;28;20120;-74
2023/08/22 08:19:51;;;;;;;0.68;0.52;;;24.60;62.20;;;;;;5006617;28;20022;-74
2023/08/22 08:22:17;;;;;;;0.60;0.60;;;24.60;61.70;;;;;;5005694;28;20080;-74
2023/08/22 08:24:43;;;;;;;1.02;0.70;;;24.60;61.50;;;;;;5009358;28;20100;-74
2023/08/22 08:27:09;;;;;;;0.73;0.73;;;24.50;61.50;;;;;;5010599;28;20053;-74
2023/08/22 08:29:34;;;;;;;1.17;0.30;;;24.60;62.00;;;;;;5012545;28;20030;-74
2023/08/22 08:32:00;;;;;;;0.60;0.60;;;24.60;61.60;;;;;;5010769;28;20022;-74
2023/08/22 08:34:26;;;;;;;1.45;0.73;;;24.70;61.50;;;;;;5007284;28;20042;-71
2023/08/22 08:36:52;;;;;;;1.45;0.63;;;24.70;61.40;;;;;;5008971;28;20044;-71
2023/08/22 08:39:18;;;;;;;2.33;0.73;;;24.70;61.50;;;;;;5009956;28;20401;-71
2023/08/22 08:42:13;;;;;;;1.02;0.70;;;24.70;61.00;;;;;;5009353;28;20029;-72
2023/08/22 08:44:39;;;;;;;1.25;0.50;;;24.70;59.90;;;;;;5013970;28;20045;-72
2023/08/22 08:47:06;;;;;;;1.05;0.70;;;24.60;60.80;;;;;;5026334;28;20497;-72
2023/08/22 08:49:34;;;;;;;0.60;0.60;;;24.60;61.20;;;;;;5006194;28;20392;-71
2023/08/22 08:52:05;;;;;;;1.85;1.08;;;24.70;61.30;;;;;;5012770;28;20056;-71
2023/08/22 08:54:32;;;;;;;0.60;0.60;;;24.70;60.40;;;;;;5007336;28;20087;-72
2023/08/22 08:56:59;;;;;;;0.63;0.43;;;24.70;60.50;;;;;;5034702;28;20758;-72
2023/08/22 08:59:25;;;;;;;2.25;0.50;;;24.60;60.20;;;;;;5012090;28;20062;-71
2023/08/22 09:01:51;;;;;;;0.80;0.80;;;24.50;59.90;;;;;;5015091;28;20091;-72
2023/08/22 09:04:17;;;;;;;0.60;0.60;;;24.50;60.00;;;;;;5015681;28;20109;-72
2023/08/22 09:06:48;;;;;;;0.50;0.50;;;24.60;60.20;;;;;;5009069;28;20323;-71
2023/08/22 09:09:14;;;;;;;0.60;0.60;;;24.70;60.10;;;;;;5011033;28;20063;-72
2023/08/22 09:11:47;;;;;;;0.85;0.40;;;24.90;60.00;;;;;;5011957;28;20093;-71
2023/08/22 09:14:19;;;;;;;1.75;0.80;;;24.90;59.90;;;;;;5011959;28;20030;-71
2023/08/22 09:16:45;;;;;;;0.70;0.40;;;25.00;59.50;;;;;;5005469;28;20107;-71
2023/08/22 09:19:12;;;;;;;1.38;0.40;;;24.90;59.70;;;;;;4999666;28;20021;-71
2023/08/22 09:21:37;;;;;;;0.70;0.60;;;25.00;59.70;;;;;;5011878;28;20041;-71
2023/08/22 09:24:12;;;;;;;0.63;0.50;;;24.90;59.50;;;;;;5010366;28;20038;-71
2023/08/22 09:26:45;;;;;;;0.55;0.55;;;24.90;60.00;;;;;;5016751;28;20037;-72
2023/08/22 09:29:11;;;;;;;0.60;0.55;;;25.00;60.10;;;;;;5008366;28;20543;-74
2023/08/22 09:31:37;;;;;;;0.90;0.80;;;25.00;59.80;;;;;;4996990;28;20413;-74
2023/08/22 09:34:12;;;;;;;0.65;0.45;;;25.00;59.70;;;;;;5012143;28;20038;-74
2023/08/22 09:36:45;;;;;;;1.75;0.52;;;25.00;60.10;;;;;;5014552;28;20033;-74
2023/08/22 09:39:14;;;;;;;0.85;0.52;;;25.20;60.30;;;;;;5012826;28;20024;-74
2023/08/22 09:41:40;;;;;;;0.82;0.68;;;25.30;60.20;;;;;;5022232;28;20034;-74
2023/08/22 09:44:08;;;;;;;0.82;0.82;;;25.50;60.40;;;;;;5009621;28;20037;-74
2023/08/22 09:46:37;;;;;;;3.03;1.38;;;25.60;60.10;;;;;;5009383;28;20033;-72
2023/08/22 09:49:06;;;;;;;2.92;1.27;;;25.70;59.40;;;;;;5012677;28;20080;-71
2023/08/22 09:51:33;;;;;;;1.45;0.95;;;25.90;59.30;;;;;;5010536;28;20037;-72
2023/08/22 09:53:59;;;;;;;0.73;0.73;;;26.10;58.60;;;;;;5006624;28;20033;-72
2023/08/22 09:56:26;;;;;;;0.77;0.63;;;26.30;57.40;;;;;;5015664;28;20089;-71
2023/08/22 09:58:55;;;;;;;1.00;0.90;;;26.50;57.10;;;;;;5011953;28;20046;-71
2023/08/22 10:01:22;;;;;;;1.10;0.95;;;26.60;57.00;;;;;;5013342;28;20033;-72
2023/08/22 10:03:49;;;;;;;2.55;1.13;;;26.70;56.10;;;;;;4997078;28;20045;-71
2023/08/22 10:06:15;;;;;;;1.35;0.90;;;26.70;55.60;;;;;;5012403;28;20118;-71
2023/08/22 10:08:43;;;;;;;1.77;1.00;;;26.70;56.10;;;;;;5012161;28;20165;-72
2023/08/22 10:11:11;;;;;;;2.22;1.02;;;26.60;56.10;;;;;;5012056;28;20022;-71
2023/08/22 10:13:38;;;;;;;1.35;0.93;;;26.40;55.70;;;;;;5013241;28;20030;-72
2023/08/22 10:16:04;;;;;;;1.33;0.68;;;26.30;56.50;;;;;;5012805;28;20059;-72
2023/08/22 10:18:30;;;;;;;0.77;0.77;;;26.40;56.80;;;;;;5014915;28;20037;-72
2023/08/22 10:20:56;;;;;;;2.90;1.17;;;26.60;56.80;;;;;;5034782;28;20065;-72
2023/08/22 10:23:50;;;;;;;1.88;1.13;;;26.90;56.80;;;;;;5011418;28;20453;-71
2023/08/22 10:26:15;;;;;;;1.58;1.20;;;27.00;56.40;;;;;;5011594;28;20037;-72
2023/08/22 10:28:42;;;;;;;0.70;0.70;;;26.90;55.20;;;;;;5010815;28;20030;-72
2023/08/22 10:31:07;;;;;;;2.00;0.95;;;26.80;55.80;;;;;;5012971;28;20474;-72
2023/08/22 10:33:33;;;;;;;0.85;0.63;;;26.80;56.10;;;;;;5008191;28;20040;-72
2023/08/22 10:36:15;;;;;;;2.38;0.90;;;26.90;56.50;;;;;;5008875;28;20076;-72
2023/08/22 10:38:52;;;;;;;0.77;0.60;;;27.00;54.60;;;;;;5008144;28;20493;-72
2023/08/22 10:41:21;;;;;;;1.42;1.20;;;27.00;55.70;;;;;;5005639;28;20116;-72
2023/08/22 10:43:48;;;;;;;1.15;0.95;;;27.10;54.30;;;;;;5009188;28;20384;-72
2023/08/22 10:46:14;;;;;;;0.50;0.50;;;27.20;54.50;;;;;;5010405;28;20470;-72
2023/08/22 10:48:39;;;;;;;1.70;0.88;;;27.30;55.00;;;;;;5012173;28;20049;-72
2023/08/22 10:51:07;;;;;;;3.55;1.42;;;27.40;55.30;;;;;;5006346;28;20074;-72
2023/08/22 10:53:43;;;;;;;1.30;0.90;;;27.30;54.30;;;;;;4993798;28;20026;-72
2023/08/22 10:56:23;;;;;;;2.35;1.17;;;27.10;54.00;;;;;;5007450;28;20080;-72
2023/08/22 10:59:00;;;;;;;2.65;0.70;;;27.10;54.20;;;;;;5003564;28;20477;-72
2023/08/22 11:01:26;;;;;;;2.90;1.40;;;27.10;53.50;;;;;;5014563;28;20366;-72
2023/08/22 11:03:52;;;;;;;0.73;0.63;;;27.20;53.40;;;;;;5015599;28;20017;-74
2023/08/22 11:06:21;;;;;;;0.82;0.50;;;27.20;53.80;;;;;;5012851;28;20037;-74
2023/08/22 11:08:47;;;;;;;0.63;0.63;;;27.20;54.00;;;;;;5018860;28;20067;-74
2023/08/22 11:11:15;;;;;;;3.25;0.77;;;27.00;53.60;;;;;;5012303;28;20936;-74
2023/08/22 11:13:42;;;;;;;1.85;1.25;;;26.90;52.90;;;;;;5013648;28;20407;-74
2023/08/22 11:16:11;;;;;;;0.90;0.50;;;26.70;53.20;;;;;;5022682;28;20026;-74
2023/08/22 11:18:38;;;;;;;1.70;0.60;;;26.80;53.80;;;;;;5008181;28;20022;-75
2023/08/22 11:21:04;;;;;;;0.45;0.45;;;26.90;53.00;;;;;;4988768;28;20117;-75
2023/08/22 11:23:34;;;;;;;2.05;0.85;;;26.90;52.80;;;;;;5010252;28;20041;-75
2023/08/22 11:26:02;;;;;;;0.90;0.52;;;26.90;51.50;;;;;;5002939;28;20034;-75
2023/08/22 11:28:31;;;;;;;1.05;0.95;;;26.90;52.40;;;;;;5011713;28;20112;-72
2023/08/22 11:30:57;;;;;;;0.30;0.30;;;27.10;52.20;;;;;;5012038;28;20354;-72
2023/08/22 11:33:23;;;;;;;1.02;0.60;;;27.20;52.30;;;;;;5009766;28;20105;-72
2023/08/22 11:35:50;;;;;;;0.45;0.45;;;27.30;50.60;;;;;;5007931;28;20360;-72
2023/08/22 11:38:16;;;;;;;0.50;0.50;;;27.30;49.20;;;;;;5009081;28;20037;-73
2023/08/22 11:40:42;;;;;;;1.17;0.40;;;27.20;50.20;;;;;;5009829;28;20034;-74
2023/08/22 11:43:09;;;;;;;0.30;0.30;;;27.20;50.10;;;;;;5011934;28;20025;-75
2023/08/22 11:45:45;;;;;;;1.70;0.50;;;27.20;49.50;;;;;;5011060;28;20126;-75
2023/08/22 11:48:15;;;;;;;0.40;0.32;;;27.20;48.30;;;;;;5010576;28;20093;-75
2023/08/22 11:50:43;;;;;;;1.33;0.32;;;27.00;49.00;;;;;;5008319;28;20045;-75
2023/08/22 11:53:13;;;;;;;0.45;0.45;;;27.10;48.70;;;;;;5010678;28;20038;-74
2023/08/22 11:55:44;;;;;;;0.40;0.40;;;27.10;47.90;;;;;;5011451;28;20116;-72
2023/08/22 11:58:12;;;;;;;2.00;0.40;;;27.30;48.70;;;;;;5006879;28;20501;-72
2023/08/22 12:00:38;;;;;;;0.50;0.50;;;27.40;47.50;;;;;;5006803;28;20033;-72
2023/08/22 12:03:09;;;;;;;0.73;0.47;;;27.40;48.00;;;;;;5003146;28;20030;-72
2023/08/22 12:05:40;;;;;;;1.15;0.40;;;27.60;48.80;;;;;;4989747;28;20045;-72
2023/08/22 12:08:06;;;;;;;0.40;0.40;;;27.90;49.10;;;;;;5003640;28;20029;-74
2023/08/22 12:10:39;;;;;;;0.55;0.55;;;27.90;48.40;;;;;;5007893;28;20531;-75
2023/08/22 12:13:05;;;;;;;0.65;0.63;;;27.90;49.10;;;;;;5025530;28;20054;-72
2023/08/22 12:15:31;;;;;;;0.60;0.60;;;27.90;48.30;;;;;;5011295;28;20034;-72
2023/08/22 12:18:00;;;;;;;0.38;0.30;;;27.80;48.00;;;;;;5001396;28;20516;-73
2023/08/22 12:20:26;;;;;;;0.85;0.50;;;27.70;48.60;;;;;;5008881;28;20065;-72
2023/08/22 12:22:51;;;;;;;0.60;0.40;;;27.70;48.80;;;;;;5018023;28;20133;-72
2023/08/22 12:25:17;;;;;;;1.65;0.88;;;27.70;48.50;;;;;;5008092;28;20038;-72
2023/08/22 12:27:43;;;;;;;1.42;0.43;;;27.60;49.20;;;;;;4991644;28;20045;-72
2023/08/22 12:30:09;;;;;;;0.40;0.40;;;27.70;49.80;;;;;;4995126;28;20030;-72
2023/08/22 12:32:34;;;;;;;0.50;0.50;;;27.70;49.90;;;;;;5007720;28;20042;-72
2023/08/22 12:35:00;;;;;;;0.73;0.60;;;27.70;50.20;;;;;;5009230;28;20034;-72
2023/08/22 12:37:26;;;;;;;1.80;0.60;;;27.60;50.00;;;;;;5007704;28;20037;-72
2023/08/22 12:39:52;;;;;;;1.70;0.73;;;27.40;50.60;;;;;;5014234;28;20039;-72
2023/08/22 12:42:18;;;;;;;0.52;0.50;;;27.20;50.80;;;;;;5006741;28;20478;-72
2023/08/22 12:44:44;;;;;;;0.93;0.63;;;27.00;51.00;;;;;;5006415;28;20535;-72
2023/08/22 12:47:10;;;;;;;0.80;0.80;;;26.90;51.60;;;;;;4999655;28;20571;-72
2023/08/22 12:49:35;;;;;;;0.75;0.63;;;26.80;52.20;;;;;;5005905;28;20112;-75